Terminal Aerodrome Forecast
Issued by NWS Quad Cities IA IL

Home | Current Version | Previous Version | Text Only | Print | Product List | Glossary On
Versions: 1 2 3 4 5 6 7 8 9 10 11 12 13 14 15 16 17 18 19 20 21
000
FTUS43 KDVN 152300 RRA
TAFDBQ
TAF
KDBQ 152349Z 1600/1624 12009KT 2SM -RADZ BR OVC007
      TEMPO 1600/1604 1SM -RA BR OVC004
     FM160900 34012KT 2SM -RA BR OVC008
     FM161200 33015G23KT 3SM -RASN BR OVC008
     FM161500 33018G26KT 5SM BR OVC012
     FM161900 32018G28KT P6SM OVC020=

USA.gov is the U.S. government's official web portal to all federal, state and local government web resources and services.